Aeroboteco Virtual Airlines! Uma nuvem a frente.



 INFORMAÇÕES METEOROLÓGICAS
METAR FOR LELO
ADDS - METARS form results

(0259 UTC 27 May 2019)
Data provider http://aviationweather.gov/metar/data/
 
METAR text: LELO 270230Z AUTO 28005KT 9999 OVC024 12/09 Q1018
Conditions at: LELO (LOGRONO/AGONCILL, ES) observed 0230 UTC 27 May 2019
Temperature: 12.0°C (54°F)
Dewpoint: 9.0°C (48°F) [RH = 82%]
Pressure (altimeter): 30.06 inches Hg (1018.0 mb)
Winds: from the W (280 degrees) at 6 MPH (5 knots; 2.6 m/s)
Visibility: 6 or more miles (10+ km)
Ceiling: 2400 feet AGL
Clouds: overcast cloud deck at 2400 feet AGL
Weather: no significant weather observed at this time

METAR text: LELO 270200Z AUTO 27007KT 9999 BKN026 12/10 Q1019
Conditions at: LELO (LOGRONO/AGONCILL, ES) observed 0200 UTC 27 May 2019
Temperature: 12.0°C (54°F)
Dewpoint: 10.0°C (50°F) [RH = 88%]
Pressure (altimeter): 30.09 inches Hg (1019.0 mb)
Winds: from the W (270 degrees) at 8 MPH (7 knots; 3.6 m/s)
Visibility: 6 or more miles (10+ km)
Ceiling: 2600 feet AGL
Clouds: broken clouds at 2600 feet AGL
Weather: no significant weather observed at this time

Forecast for: LELO (LOGRONO/AGONCILL, ES)
Text: TAF LELO 270200Z 2703/2712 28008KT 9999 BKN025
Forecast period: 0300 to 1200 UTC 27 May 2019
Forecast type: FROM: standard forecast or significant change
Winds: from the W (280 degrees) at 9 MPH (8 knots; 4.1 m/s)
Visibility: 6 or more miles 10+ km)
Ceiling: 2500 feet AGL
Clouds: broken clouds at 2500 feet AGL
Weather: no significant weather forecast for this period

 MAPA DO AEROPORTO

 INFORMAÇÕES DA PISTA

 FREQUÊNCIAS DO AEROPORTO

 AUXÍLIOS DE NAVEGAÇÃO PRÓXIMOS AO AEROPORTO
Tipo NDB Nome Logrono Frequência 399 KHZ